createdAt,value
2019-04-10T00:02:55.614Z,24.60
2019-04-10T00:08:01.871Z,24.30
2019-04-10T00:13:07.323Z,24.93
2019-04-10T00:18:13.781Z,24.83
2019-04-10T00:23:19.485Z,25.07
2019-04-10T00:28:25.493Z,25.60
2019-04-10T00:33:30.872Z,25.60
2019-04-10T00:38:36.204Z,25.77
2019-04-10T00:43:41.636Z,26.40
2019-04-10T00:48:48.085Z,26.40
2019-04-10T00:53:53.858Z,26.50
2019-04-10T00:58:59.633Z,27.80
2019-04-10T01:04:04.983Z,26.87
2019-04-10T01:09:10.727Z,26.50
2019-04-10T03:18:51.107Z,33.60
2019-04-10T03:23:56.463Z,32.50
2019-04-10T03:29:01.774Z,30.03
2019-04-10T03:34:25.495Z,30.53
2019-04-10T03:39:33.002Z,33.23
2019-04-10T03:44:37.144Z,32.10
2019-04-10T03:49:42.461Z,33.33
2019-04-10T03:54:48.173Z,35.83
2019-04-10T03:59:53.838Z,33.27
2019-04-10T04:05:00.309Z,32.60
2019-04-10T04:10:06.442Z,32.00
2019-04-10T04:15:12.257Z,32.00
2019-04-10T04:20:17.575Z,30.33
2019-04-10T04:25:24.045Z,31.40
2019-04-10T04:30:29.725Z,32.27
2019-04-10T04:35:35.031Z,33.83
2019-04-10T04:40:40.349Z,33.63
2019-04-10T04:45:46.270Z,35.50
2019-04-10T04:50:52.241Z,35.87
2019-04-10T04:55:57.735Z,34.90
2019-04-10T05:01:04.227Z,33.63
2019-04-10T05:06:09.655Z,34.47
2019-04-10T05:11:15.125Z,34.37
2019-04-10T05:16:20.696Z,34.27
2019-04-10T05:21:26.006Z,36.93
2019-04-10T05:26:32.306Z,35.80
2019-04-10T05:31:37.807Z,34.80
2019-04-10T05:36:44.081Z,35.47
2019-04-10T05:41:50.387Z,38.13
2019-04-10T05:46:56.916Z,35.27
2019-04-10T05:52:02.319Z,37.67
2019-04-10T05:57:08.354Z,38.60
2019-04-10T06:02:13.916Z,37.20
2019-04-10T06:07:19.256Z,39.43
2019-04-10T06:12:24.573Z,37.97
2019-04-10T06:17:30.186Z,39.97
2019-04-10T06:22:36.624Z,37.90
2019-04-10T06:27:42.980Z,39.93
2019-04-10T06:32:49.453Z,39.93
2019-04-10T06:37:54.824Z,37.63
2019-04-10T06:43:00.942Z,36.10
2019-04-10T06:48:06.848Z,34.07
2019-04-10T06:53:14.646Z,36.83
2019-04-10T06:58:20.084Z,36.17
2019-04-10T07:03:38.453Z,35.10
2019-04-10T07:08:32.818Z,34.97
2019-04-10T07:13:40.483Z,34.57
2019-04-10T07:18:49.031Z,33.20
2019-04-10T07:23:55.234Z,35.07
2019-04-10T07:29:00.585Z,34.63
2019-04-10T07:34:06.773Z,34.63
2019-04-10T07:39:13.115Z,33.73
2019-04-10T07:44:18.923Z,34.40
2019-04-10T07:49:26.650Z,36.63
2019-04-10T07:54:31.266Z,36.37
2019-04-10T07:59:37.576Z,34.80
2019-04-10T08:04:43.194Z,35.73
2019-04-10T08:09:49.726Z,36.13
2019-04-10T08:14:56.148Z,35.77
2019-04-10T08:20:01.654Z,36.67
2019-04-10T08:25:09.272Z,38.23
2019-04-10T08:30:15.575Z,36.90
2019-04-10T08:35:20.967Z,38.27
2019-04-10T08:40:26.213Z,36.87
2019-04-10T08:45:40.290Z,37.87
2019-04-10T08:50:38.606Z,34.97
2019-04-10T08:55:43.922Z,35.33
2019-04-10T09:00:50.980Z,36.50
2019-04-10T09:05:56.496Z,36.80
2019-04-10T09:11:02.995Z,35.33
2019-04-10T09:16:08.305Z,35.23
2019-04-10T09:21:13.623Z,35.87
2019-04-10T09:26:18.952Z,35.17
2019-04-10T09:31:24.342Z,36.23
2019-04-10T09:36:29.695Z,36.10
2019-04-10T09:41:36.168Z,36.83
2019-04-10T09:46:41.525Z,36.43
2019-04-10T09:51:48.073Z,34.70
2019-04-10T09:56:53.387Z,35.83
2019-04-10T10:01:58.703Z,36.43
2019-04-10T10:07:06.119Z,37.07
2019-04-10T10:12:11.689Z,36.30
2019-04-10T10:17:18.203Z,37.90
2019-04-10T10:22:23.509Z,34.70
2019-04-10T10:27:30.132Z,34.80
2019-04-10T10:32:35.552Z,37.27
2019-04-10T10:37:41.074Z,35.28
2019-04-10T10:42:47.625Z,37.60
2019-04-10T10:47:52.956Z,36.93
2019-04-10T10:52:58.284Z,36.93
2019-04-10T10:58:03.744Z,37.77
2019-04-10T11:03:09.925Z,37.67
2019-04-10T11:08:15.379Z,36.83
2019-04-10T11:13:20.687Z,36.40
2019-04-10T11:18:26.223Z,33.70
2019-04-10T11:23:33.750Z,34.40
2019-04-10T11:28:41.831Z,38.28
2019-04-10T11:33:51.409Z,37.20
2019-04-10T11:39:06.988Z,35.23
2019-04-10T11:44:04.376Z,36.38
2019-04-10T11:49:12.923Z,34.48
2019-04-10T11:54:18.118Z,34.78
2019-04-10T11:59:26.210Z,33.88
2019-04-10T12:14:45.871Z,35.63
2019-04-10T12:19:52.054Z,33.15
2019-04-10T12:24:58.475Z,34.65
2019-04-10T12:30:05.047Z,35.33
2019-04-10T12:35:10.958Z,37.40
2019-04-10T12:40:17.310Z,37.67
2019-04-10T12:45:22.690Z,36.30
2019-04-10T12:50:28.676Z,38.38
2019-04-10T12:55:34.731Z,40.57
2019-04-10T13:00:41.137Z,38.50
2019-04-10T13:05:47.269Z,38.90
2019-04-10T13:10:52.584Z,36.60
2019-04-10T13:15:58.030Z,36.63
2019-04-10T13:21:04.268Z,34.97
2019-04-10T13:26:10.894Z,34.80
2019-04-10T13:31:17.118Z,35.43
2019-04-10T13:36:22.511Z,35.10
2019-04-10T13:41:28.252Z,36.57
2019-04-10T13:46:33.934Z,35.93
2019-04-10T13:51:39.628Z,35.23
2019-04-10T13:56:45.373Z,34.77
2019-04-10T14:01:52.263Z,34.87
2019-04-10T14:06:58.381Z,35.67
2019-04-10T14:12:04.021Z,37.00
2019-04-10T14:17:09.400Z,37.63
2019-04-10T14:22:15.610Z,37.47
2019-04-10T14:27:24.414Z,38.03
2019-04-10T14:32:35.674Z,36.07
2019-04-10T14:37:41.318Z,36.20
2019-04-10T14:42:47.224Z,36.40
2019-04-10T14:47:53.758Z,36.17
2019-04-10T14:52:59.234Z,36.33
2019-04-10T14:58:05.551Z,36.00
2019-04-10T15:03:11.908Z,36.10
2019-04-10T15:08:17.565Z,37.20
2019-04-10T15:13:24.374Z,37.03
2019-04-10T15:18:30.924Z,38.67
2019-04-10T15:23:36.576Z,37.43
2019-04-10T15:28:43.601Z,36.37
2019-04-10T15:33:49.640Z,36.37
2019-04-10T15:38:55.060Z,38.33
2019-04-10T15:44:01.540Z,35.67
2019-04-10T15:49:07.103Z,36.50
2019-04-10T15:54:13.833Z,36.13
2019-04-10T15:59:19.863Z,35.37
2019-04-10T16:04:26.207Z,35.83
2019-04-10T16:09:44.864Z,35.17
2019-04-10T16:14:40.091Z,35.23
2019-04-10T16:19:54.355Z,37.40
2019-04-10T16:25:05.279Z,37.03
2019-04-10T16:30:15.941Z,36.50
2019-04-10T16:35:21.652Z,36.77
2019-04-10T16:40:27.059Z,34.63
2019-04-10T16:45:32.766Z,38.13
2019-04-10T16:50:39.339Z,34.20
2019-04-10T16:55:45.792Z,37.23
2019-04-10T17:00:51.112Z,36.27
2019-04-10T17:05:57.624Z,36.13
2019-04-10T17:11:04.724Z,36.37
2019-04-10T17:16:10.371Z,34.77
2019-04-10T17:21:18.464Z,35.23
2019-04-10T17:26:24.759Z,35.03
2019-04-10T17:31:30.793Z,33.10
2019-04-10T17:36:36.887Z,34.93
2019-04-10T17:41:42.249Z,34.67
2019-04-10T17:46:47.655Z,34.73
2019-04-10T17:51:52.980Z,32.93
2019-04-10T17:57:00.315Z,31.60
2019-04-10T18:02:09.622Z,33.23
2019-04-10T18:07:14.952Z,32.50
2019-04-10T18:12:20.287Z,33.33
2019-04-10T18:17:33.183Z,32.60
2019-04-10T18:22:38.636Z,32.37
2019-04-10T18:27:44.866Z,33.03
2019-04-10T18:32:50.232Z,34.23
2019-04-10T18:37:55.590Z,33.10
2019-04-10T18:43:02.136Z,32.07
2019-04-10T18:48:08.325Z,33.30
2019-04-10T18:53:15.012Z,31.60
2019-04-10T18:58:24.377Z,31.47
2019-04-10T19:03:58.288Z,30.17
2019-04-10T19:09:10.141Z,32.37
2019-04-10T19:14:09.720Z,32.57
2019-04-10T19:19:15.107Z,30.80
2019-04-10T19:24:21.989Z,31.97
2019-04-10T19:29:27.663Z,29.77
2019-04-10T19:34:33.804Z,28.07
2019-04-10T19:39:40.400Z,27.90
2019-04-10T19:44:45.857Z,27.40
2019-04-10T19:49:51.297Z,26.53
2019-04-10T19:54:57.570Z,26.20
2019-04-10T20:00:04.147Z,26.03
2019-04-10T20:05:09.944Z,26.07
2019-04-10T20:10:17.004Z,25.80
2019-04-10T20:15:22.786Z,25.53
2019-04-10T20:20:29.075Z,26.63
2019-04-10T20:25:35.172Z,25.00
2019-04-10T20:30:42.516Z,24.20
2019-04-10T20:35:48.790Z,24.37
2019-04-10T20:40:54.687Z,23.47
2019-04-10T20:46:00.808Z,24.23
2019-04-10T20:51:06.525Z,22.90
2019-04-10T20:56:12.838Z,20.23
2019-04-10T21:01:20.208Z,21.23
2019-04-10T21:06:25.852Z,18.43
2019-04-10T21:11:31.375Z,15.97
2019-04-10T21:16:37.861Z,15.17
2019-04-10T21:21:43.482Z,13.73
2019-04-10T21:26:49.577Z,12.77
2019-04-10T21:32:03.421Z,12.93
2019-04-10T21:37:09.963Z,11.90
2019-04-10T21:42:21.818Z,12.07
2019-04-10T21:47:23.627Z,11.53
2019-04-10T21:52:30.587Z,12.13
2019-04-10T21:57:38.338Z,10.67
2019-04-10T22:02:45.163Z,9.63
2019-04-10T22:08:27.434Z,9.80
2019-04-10T22:13:34.385Z,9.30
2019-04-10T22:18:40.164Z,10.27
2019-04-10T22:23:46.879Z,9.90
2019-04-10T22:28:52.831Z,10.47
2019-04-10T22:33:59.490Z,9.47
2019-04-10T22:39:08.856Z,10.00
2019-04-10T22:44:17.604Z,8.87
2019-04-10T22:49:22.923Z,9.97
2019-04-10T22:54:28.469Z,9.13
2019-04-10T22:59:34.854Z,8.43
2019-04-10T23:04:40.870Z,8.80
2019-04-10T23:09:46.600Z,9.10
2019-04-10T23:14:53.163Z,9.50
2019-04-10T23:19:58.608Z,8.80
2019-04-10T23:25:04.446Z,8.90
2019-04-10T23:30:13.523Z,9.17
2019-04-10T23:35:19.162Z,9.93
2019-04-10T23:40:25.086Z,9.57
2019-04-10T23:45:31.395Z,9.37
2019-04-10T23:50:36.872Z,9.57
2019-04-10T23:55:42.459Z,9.13
